sensor_id;sensor_type;location;lat;lon;timestamp;P1;durP1;ratioP1;P2;durP2;ratioP2
16516;SDS011;8371;52.272;9.746;2023-07-02T00:01:43;0.90;;;0.90;;
16516;SDS011;8371;52.272;9.746;2023-07-02T00:04:08;1.07;;;0.70;;
16516;SDS011;8371;52.272;9.746;2023-07-02T00:06:35;0.83;;;0.83;;
16516;SDS011;8371;52.272;9.746;2023-07-02T00:09:03;0.97;;;0.97;;
16516;SDS011;8371;52.272;9.746;2023-07-02T00:11:29;1.10;;;1.10;;
16516;SDS011;8371;52.272;9.746;2023-07-02T00:13:55;1.10;;;1.10;;
16516;SDS011;8371;52.272;9.746;2023-07-02T00:16:21;1.20;;;1.20;;
16516;SDS011;8371;52.272;9.746;2023-07-02T00:18:46;1.73;;;1.00;;
16516;SDS011;8371;52.272;9.746;2023-07-02T00:21:14;0.70;;;0.70;;
16516;SDS011;8371;52.272;9.746;2023-07-02T00:23:40;1.00;;;1.00;;
16516;SDS011;8371;52.272;9.746;2023-07-02T00:26:06;1.63;;;1.20;;
16516;SDS011;8371;52.272;9.746;2023-07-02T00:28:31;0.90;;;0.90;;
16516;SDS011;8371;52.272;9.746;2023-07-02T00:30:57;1.00;;;1.00;;
16516;SDS011;8371;52.272;9.746;2023-07-02T00:33:23;0.80;;;0.80;;
16516;SDS011;8371;52.272;9.746;2023-07-02T00:35:49;0.90;;;0.90;;
16516;SDS011;8371;52.272;9.746;2023-07-02T00:38:15;1.60;;;0.80;;
16516;SDS011;8371;52.272;9.746;2023-07-02T00:40:41;1.13;;;1.03;;
16516;SDS011;8371;52.272;9.746;2023-07-02T00:43:07;0.90;;;0.90;;
16516;SDS011;8371;52.272;9.746;2023-07-02T00:45:35;1.30;;;1.20;;
16516;SDS011;8371;52.272;9.746;2023-07-02T00:48:01;0.80;;;0.77;;
16516;SDS011;8371;52.272;9.746;2023-07-02T00:50:27;0.90;;;0.90;;
16516;SDS011;8371;52.272;9.746;2023-07-02T00:52:54;1.07;;;1.07;;
16516;SDS011;8371;52.272;9.746;2023-07-02T00:55:20;1.17;;;1.10;;
16516;SDS011;8371;52.272;9.746;2023-07-02T00:57:46;1.90;;;0.87;;
16516;SDS011;8371;52.272;9.746;2023-07-02T01:00:12;1.03;;;1.03;;
16516;SDS011;8371;52.272;9.746;2023-07-02T01:02:38;0.97;;;0.97;;
16516;SDS011;8371;52.272;9.746;2023-07-02T01:05:06;1.00;;;0.90;;
16516;SDS011;8371;52.272;9.746;2023-07-02T01:07:32;1.60;;;1.30;;
16516;SDS011;8371;52.272;9.746;2023-07-02T01:09:58;1.00;;;1.00;;
16516;SDS011;8371;52.272;9.746;2023-07-02T01:12:24;0.93;;;0.93;;
16516;SDS011;8371;52.272;9.746;2023-07-02T01:14:51;3.30;;;1.17;;
16516;SDS011;8371;52.272;9.746;2023-07-02T01:17:20;3.50;;;1.20;;
16516;SDS011;8371;52.272;9.746;2023-07-02T01:19:51;0.77;;;0.77;;
16516;SDS011;8371;52.272;9.746;2023-07-02T01:22:19;1.00;;;0.90;;
16516;SDS011;8371;52.272;9.746;2023-07-02T01:24:46;1.10;;;1.10;;
16516;SDS011;8371;52.272;9.746;2023-07-02T01:27:13;1.30;;;1.30;;
16516;SDS011;8371;52.272;9.746;2023-07-02T01:29:40;1.13;;;1.13;;
16516;SDS011;8371;52.272;9.746;2023-07-02T01:32:06;1.00;;;1.00;;
16516;SDS011;8371;52.272;9.746;2023-07-02T01:34:33;1.10;;;1.10;;
16516;SDS011;8371;52.272;9.746;2023-07-02T01:37:00;3.23;;;1.30;;
16516;SDS011;8371;52.272;9.746;2023-07-02T01:39:27;3.60;;;1.30;;
16516;SDS011;8371;52.272;9.746;2023-07-02T01:41:54;1.33;;;1.33;;
16516;SDS011;8371;52.272;9.746;2023-07-02T01:44:21;1.57;;;1.47;;
16516;SDS011;8371;52.272;9.746;2023-07-02T01:46:48;1.33;;;1.33;;
16516;SDS011;8371;52.272;9.746;2023-07-02T01:49:17;1.33;;;1.30;;
16516;SDS011;8371;52.272;9.746;2023-07-02T01:51:50;1.53;;;1.30;;
16516;SDS011;8371;52.272;9.746;2023-07-02T01:54:17;1.50;;;1.20;;
16516;SDS011;8371;52.272;9.746;2023-07-02T01:56:44;5.90;;;1.43;;
16516;SDS011;8371;52.272;9.746;2023-07-02T01:59:10;2.00;;;1.30;;
16516;SDS011;8371;52.272;9.746;2023-07-02T02:01:37;1.63;;;1.50;;
16516;SDS011;8371;52.272;9.746;2023-07-02T02:04:05;1.50;;;1.40;;
16516;SDS011;8371;52.272;9.746;2023-07-02T02:06:31;2.70;;;1.40;;
16516;SDS011;8371;52.272;9.746;2023-07-02T02:08:56;3.30;;;1.57;;
16516;SDS011;8371;52.272;9.746;2023-07-02T02:11:23;1.60;;;1.53;;
16516;SDS011;8371;52.272;9.746;2023-07-02T02:13:49;1.97;;;1.70;;
16516;SDS011;8371;52.272;9.746;2023-07-02T02:16:15;1.43;;;1.43;;
16516;SDS011;8371;52.272;9.746;2023-07-02T02:18:41;2.20;;;1.27;;
16516;SDS011;8371;52.272;9.746;2023-07-02T02:21:07;3.63;;;1.37;;
16516;SDS011;8371;52.272;9.746;2023-07-02T02:23:32;1.43;;;1.37;;
16516;SDS011;8371;52.272;9.746;2023-07-02T02:25:58;2.37;;;1.67;;
16516;SDS011;8371;52.272;9.746;2023-07-02T02:28:24;1.57;;;1.57;;
16516;SDS011;8371;52.272;9.746;2023-07-02T02:30:49;1.50;;;1.40;;
16516;SDS011;8371;52.272;9.746;2023-07-02T02:33:15;1.50;;;1.50;;
16516;SDS011;8371;52.272;9.746;2023-07-02T02:35:40;1.30;;;1.30;;
16516;SDS011;8371;52.272;9.746;2023-07-02T02:38:06;2.87;;;1.60;;
16516;SDS011;8371;52.272;9.746;2023-07-02T02:40:32;2.33;;;1.73;;
16516;SDS011;8371;52.272;9.746;2023-07-02T02:42:58;1.37;;;1.33;;
16516;SDS011;8371;52.272;9.746;2023-07-02T02:45:24;2.07;;;1.53;;
16516;SDS011;8371;52.272;9.746;2023-07-02T02:47:49;1.37;;;1.37;;
16516;SDS011;8371;52.272;9.746;2023-07-02T02:50:15;1.57;;;1.47;;
16516;SDS011;8371;52.272;9.746;2023-07-02T02:52:41;3.53;;;1.53;;
16516;SDS011;8371;52.272;9.746;2023-07-02T02:55:07;1.77;;;1.67;;
16516;SDS011;8371;52.272;9.746;2023-07-02T02:57:34;2.83;;;1.43;;
16516;SDS011;8371;52.272;9.746;2023-07-02T03:00:00;2.20;;;1.30;;
16516;SDS011;8371;52.272;9.746;2023-07-02T03:02:25;1.60;;;1.60;;
16516;SDS011;8371;52.272;9.746;2023-07-02T03:04:51;1.50;;;1.50;;
16516;SDS011;8371;52.272;9.746;2023-07-02T03:07:17;1.97;;;1.80;;
16516;SDS011;8371;52.272;9.746;2023-07-02T03:09:42;1.60;;;1.60;;
16516;SDS011;8371;52.272;9.746;2023-07-02T03:12:08;1.97;;;1.97;;
16516;SDS011;8371;52.272;9.746;2023-07-02T03:14:34;2.80;;;1.70;;
16516;SDS011;8371;52.272;9.746;2023-07-02T03:17:00;1.80;;;1.73;;
16516;SDS011;8371;52.272;9.746;2023-07-02T03:19:26;2.00;;;1.90;;
16516;SDS011;8371;52.272;9.746;2023-07-02T03:21:51;2.07;;;1.97;;
16516;SDS011;8371;52.272;9.746;2023-07-02T03:24:17;2.20;;;2.10;;
16516;SDS011;8371;52.272;9.746;2023-07-02T03:26:43;2.10;;;2.00;;
16516;SDS011;8371;52.272;9.746;2023-07-02T03:29:10;2.57;;;2.30;;
16516;SDS011;8371;52.272;9.746;2023-07-02T03:31:36;2.30;;;1.73;;
16516;SDS011;8371;52.272;9.746;2023-07-02T03:34:03;2.13;;;2.03;;
16516;SDS011;8371;52.272;9.746;2023-07-02T03:36:31;2.07;;;1.97;;
16516;SDS011;8371;52.272;9.746;2023-07-02T03:38:57;2.07;;;1.97;;
16516;SDS011;8371;52.272;9.746;2023-07-02T03:41:23;2.13;;;2.03;;
16516;SDS011;8371;52.272;9.746;2023-07-02T03:43:48;1.70;;;1.70;;
16516;SDS011;8371;52.272;9.746;2023-07-02T03:46:14;2.60;;;2.20;;
16516;SDS011;8371;52.272;9.746;2023-07-02T03:48:40;1.83;;;1.77;;
16516;SDS011;8371;52.272;9.746;2023-07-02T03:51:06;2.47;;;2.37;;
16516;SDS011;8371;52.272;9.746;2023-07-02T03:53:32;1.83;;;1.77;;
16516;SDS011;8371;52.272;9.746;2023-07-02T03:55:57;2.00;;;1.90;;
16516;SDS011;8371;52.272;9.746;2023-07-02T03:58:23;2.10;;;2.10;;
16516;SDS011;8371;52.272;9.746;2023-07-02T04:00:49;2.40;;;2.30;;
16516;SDS011;8371;52.272;9.746;2023-07-02T04:03:15;1.83;;;1.80;;
16516;SDS011;8371;52.272;9.746;2023-07-02T04:05:41;2.07;;;1.97;;
16516;SDS011;8371;52.272;9.746;2023-07-02T04:08:08;1.73;;;1.63;;
16516;SDS011;8371;52.272;9.746;2023-07-02T04:10:34;1.93;;;1.93;;
16516;SDS011;8371;52.272;9.746;2023-07-02T04:13:00;1.97;;;1.73;;
16516;SDS011;8371;52.272;9.746;2023-07-02T04:15:25;2.63;;;2.53;;
16516;SDS011;8371;52.272;9.746;2023-07-02T04:17:52;2.83;;;2.47;;
16516;SDS011;8371;52.272;9.746;2023-07-02T04:20:18;2.60;;;2.40;;
16516;SDS011;8371;52.272;9.746;2023-07-02T04:22:45;5.67;;;2.30;;
16516;SDS011;8371;52.272;9.746;2023-07-02T04:25:11;2.20;;;2.10;;
16516;SDS011;8371;52.272;9.746;2023-07-02T04:27:40;6.47;;;2.43;;
16516;SDS011;8371;52.272;9.746;2023-07-02T04:30:08;2.30;;;2.30;;
16516;SDS011;8371;52.272;9.746;2023-07-02T04:32:35;2.93;;;2.83;;
16516;SDS011;8371;52.272;9.746;2023-07-02T04:35:05;2.30;;;2.30;;
16516;SDS011;8371;52.272;9.746;2023-07-02T04:37:34;4.57;;;3.07;;
16516;SDS011;8371;52.272;9.746;2023-07-02T04:40:00;2.93;;;2.63;;
16516;SDS011;8371;52.272;9.746;2023-07-02T04:42:27;3.03;;;2.83;;
16516;SDS011;8371;52.272;9.746;2023-07-02T04:44:53;2.43;;;2.33;;
16516;SDS011;8371;52.272;9.746;2023-07-02T04:47:19;2.87;;;2.67;;
16516;SDS011;8371;52.272;9.746;2023-07-02T04:49:45;2.53;;;2.33;;
16516;SDS011;8371;52.272;9.746;2023-07-02T04:52:11;2.57;;;2.47;;
16516;SDS011;8371;52.272;9.746;2023-07-02T04:54:37;3.60;;;3.27;;
16516;SDS011;8371;52.272;9.746;2023-07-02T04:57:03;3.77;;;3.43;;
16516;SDS011;8371;52.272;9.746;2023-07-02T04:59:29;3.93;;;3.63;;
16516;SDS011;8371;52.272;9.746;2023-07-02T05:01:55;4.70;;;3.30;;
16516;SDS011;8371;52.272;9.746;2023-07-02T05:04:20;3.47;;;3.17;;
16516;SDS011;8371;52.272;9.746;2023-07-02T05:06:46;3.40;;;2.97;;
16516;SDS011;8371;52.272;9.746;2023-07-02T05:09:12;3.43;;;3.17;;
16516;SDS011;8371;52.272;9.746;2023-07-02T05:11:38;5.43;;;2.80;;
16516;SDS011;8371;52.272;9.746;2023-07-02T05:14:03;3.73;;;3.07;;
16516;SDS011;8371;52.272;9.746;2023-07-02T05:16:29;3.50;;;3.20;;
16516;SDS011;8371;52.272;9.746;2023-07-02T05:18:55;3.00;;;2.90;;
16516;SDS011;8371;52.272;9.746;2023-07-02T05:21:20;3.07;;;2.97;;
16516;SDS011;8371;52.272;9.746;2023-07-02T05:23:46;3.27;;;3.07;;
16516;SDS011;8371;52.272;9.746;2023-07-02T05:26:12;3.37;;;3.07;;
16516;SDS011;8371;52.272;9.746;2023-07-02T05:28:38;3.17;;;2.97;;
16516;SDS011;8371;52.272;9.746;2023-07-02T05:31:04;3.67;;;3.47;;
16516;SDS011;8371;52.272;9.746;2023-07-02T05:33:29;2.87;;;2.67;;
16516;SDS011;8371;52.272;9.746;2023-07-02T05:35:57;4.13;;;3.73;;
16516;SDS011;8371;52.272;9.746;2023-07-02T05:38:23;3.20;;;3.00;;
16516;SDS011;8371;52.272;9.746;2023-07-02T05:40:49;2.80;;;2.70;;
16516;SDS011;8371;52.272;9.746;2023-07-02T05:43:15;3.20;;;3.00;;
16516;SDS011;8371;52.272;9.746;2023-07-02T05:45:41;3.00;;;2.90;;
16516;SDS011;8371;52.272;9.746;2023-07-02T05:48:07;2.80;;;2.60;;
16516;SDS011;8371;52.272;9.746;2023-07-02T05:50:32;3.13;;;2.93;;
16516;SDS011;8371;52.272;9.746;2023-07-02T05:52:58;3.87;;;2.57;;
16516;SDS011;8371;52.272;9.746;2023-07-02T05:55:24;2.70;;;2.60;;
16516;SDS011;8371;52.272;9.746;2023-07-02T05:57:50;3.30;;;2.90;;
16516;SDS011;8371;52.272;9.746;2023-07-02T06:00:16;3.17;;;2.87;;
16516;SDS011;8371;52.272;9.746;2023-07-02T06:02:42;3.53;;;2.70;;
16516;SDS011;8371;52.272;9.746;2023-07-02T06:05:08;3.03;;;2.87;;
16516;SDS011;8371;52.272;9.746;2023-07-02T06:07:33;3.33;;;3.03;;
16516;SDS011;8371;52.272;9.746;2023-07-02T06:09:59;3.13;;;2.93;;
16516;SDS011;8371;52.272;9.746;2023-07-02T06:12:25;2.90;;;2.70;;
16516;SDS011;8371;52.272;9.746;2023-07-02T06:14:50;2.77;;;2.67;;
16516;SDS011;8371;52.272;9.746;2023-07-02T06:17:16;3.27;;;3.07;;
16516;SDS011;8371;52.272;9.746;2023-07-02T06:19:44;4.70;;;3.37;;
16516;SDS011;8371;52.272;9.746;2023-07-02T06:22:09;3.67;;;3.30;;
16516;SDS011;8371;52.272;9.746;2023-07-02T06:24:35;3.50;;;3.30;;
16516;SDS011;8371;52.272;9.746;2023-07-02T06:27:01;3.37;;;3.00;;
16516;SDS011;8371;52.272;9.746;2023-07-02T06:29:27;3.20;;;3.00;;
16516;SDS011;8371;52.272;9.746;2023-07-02T06:31:54;10.23;;;3.00;;
16516;SDS011;8371;52.272;9.746;2023-07-02T06:34:20;3.27;;;3.07;;
16516;SDS011;8371;52.272;9.746;2023-07-02T06:36:45;4.40;;;3.80;;
16516;SDS011;8371;52.272;9.746;2023-07-02T06:39:11;4.77;;;3.10;;
16516;SDS011;8371;52.272;9.746;2023-07-02T06:41:37;3.80;;;3.60;;
16516;SDS011;8371;52.272;9.746;2023-07-02T06:44:02;2.97;;;2.57;;
16516;SDS011;8371;52.272;9.746;2023-07-02T06:46:28;4.83;;;4.40;;
16516;SDS011;8371;52.272;9.746;2023-07-02T06:48:55;5.00;;;3.60;;
16516;SDS011;8371;52.272;9.746;2023-07-02T06:51:21;3.53;;;3.23;;
16516;SDS011;8371;52.272;9.746;2023-07-02T06:53:47;3.43;;;3.23;;
16516;SDS011;8371;52.272;9.746;2023-07-02T06:56:13;6.73;;;4.20;;
16516;SDS011;8371;52.272;9.746;2023-07-02T06:58:39;3.13;;;3.00;;
16516;SDS011;8371;52.272;9.746;2023-07-02T07:01:07;4.27;;;3.90;;
16516;SDS011;8371;52.272;9.746;2023-07-02T07:03:33;5.87;;;3.23;;
16516;SDS011;8371;52.272;9.746;2023-07-02T07:06:00;4.57;;;4.27;;
16516;SDS011;8371;52.272;9.746;2023-07-02T07:08:25;3.80;;;3.60;;
16516;SDS011;8371;52.272;9.746;2023-07-02T07:10:51;3.97;;;3.63;;
16516;SDS011;8371;52.272;9.746;2023-07-02T07:13:16;4.70;;;4.20;;
16516;SDS011;8371;52.272;9.746;2023-07-02T07:15:42;4.13;;;3.80;;
16516;SDS011;8371;52.272;9.746;2023-07-02T07:18:09;3.97;;;3.77;;
16516;SDS011;8371;52.272;9.746;2023-07-02T07:20:35;4.10;;;3.83;;
16516;SDS011;8371;52.272;9.746;2023-07-02T07:23:04;3.93;;;3.73;;
16516;SDS011;8371;52.272;9.746;2023-07-02T07:25:31;4.30;;;4.10;;
16516;SDS011;8371;52.272;9.746;2023-07-02T07:27:57;4.73;;;4.43;;
16516;SDS011;8371;52.272;9.746;2023-07-02T07:30:24;4.50;;;4.20;;
16516;SDS011;8371;52.272;9.746;2023-07-02T07:32:51;5.63;;;4.20;;
16516;SDS011;8371;52.272;9.746;2023-07-02T07:35:22;6.50;;;4.00;;
16516;SDS011;8371;52.272;9.746;2023-07-02T07:37:48;5.97;;;4.40;;
16516;SDS011;8371;52.272;9.746;2023-07-02T07:40:14;7.33;;;4.20;;
16516;SDS011;8371;52.272;9.746;2023-07-02T07:42:43;5.83;;;4.97;;
16516;SDS011;8371;52.272;9.746;2023-07-02T07:45:09;3.87;;;3.57;;
16516;SDS011;8371;52.272;9.746;2023-07-02T07:47:35;3.97;;;3.70;;
16516;SDS011;8371;52.272;9.746;2023-07-02T07:50:01;5.63;;;4.50;;
16516;SDS011;8371;52.272;9.746;2023-07-02T07:52:27;4.80;;;4.40;;
16516;SDS011;8371;52.272;9.746;2023-07-02T07:54:53;4.90;;;4.53;;
16516;SDS011;8371;52.272;9.746;2023-07-02T07:57:18;8.43;;;6.00;;
16516;SDS011;8371;52.272;9.746;2023-07-02T07:59:44;7.10;;;4.40;;
16516;SDS011;8371;52.272;9.746;2023-07-02T08:02:10;5.47;;;4.40;;
16516;SDS011;8371;52.272;9.746;2023-07-02T08:04:35;4.63;;;4.23;;
16516;SDS011;8371;52.272;9.746;2023-07-02T08:07:01;5.20;;;4.70;;
16516;SDS011;8371;52.272;9.746;2023-07-02T08:09:29;6.00;;;4.50;;
16516;SDS011;8371;52.272;9.746;2023-07-02T08:11:54;4.60;;;4.20;;
16516;SDS011;8371;52.272;9.746;2023-07-02T08:14:20;6.57;;;4.53;;
16516;SDS011;8371;52.272;9.746;2023-07-02T08:16:46;4.67;;;4.37;;
16516;SDS011;8371;52.272;9.746;2023-07-02T08:19:12;4.77;;;4.37;;
16516;SDS011;8371;52.272;9.746;2023-07-02T08:21:37;4.77;;;4.47;;
16516;SDS011;8371;52.272;9.746;2023-07-02T08:24:03;5.80;;;5.30;;
16516;SDS011;8371;52.272;9.746;2023-07-02T08:26:29;5.30;;;4.80;;
16516;SDS011;8371;52.272;9.746;2023-07-02T08:28:55;4.83;;;4.17;;
16516;SDS011;8371;52.272;9.746;2023-07-02T08:31:20;4.87;;;4.43;;
16516;SDS011;8371;52.272;9.746;2023-07-02T08:33:46;5.03;;;4.73;;
16516;SDS011;8371;52.272;9.746;2023-07-02T08:36:12;4.90;;;4.60;;
16516;SDS011;8371;52.272;9.746;2023-07-02T08:38:39;5.33;;;4.93;;
16516;SDS011;8371;52.272;9.746;2023-07-02T08:41:07;4.60;;;4.27;;
16516;SDS011;8371;52.272;9.746;2023-07-02T08:43:33;4.60;;;4.07;;
16516;SDS011;8371;52.272;9.746;2023-07-02T08:46:01;4.60;;;4.30;;
16516;SDS011;8371;52.272;9.746;2023-07-02T08:48:27;5.60;;;4.73;;
16516;SDS011;8371;52.272;9.746;2023-07-02T08:50:58;5.00;;;4.60;;
16516;SDS011;8371;52.272;9.746;2023-07-02T08:53:23;5.37;;;4.87;;
16516;SDS011;8371;52.272;9.746;2023-07-02T08:55:51;7.07;;;3.90;;
16516;SDS011;8371;52.272;9.746;2023-07-02T08:58:17;5.73;;;4.23;;
16516;SDS011;8371;52.272;9.746;2023-07-02T09:03:35;4.93;;;4.53;;
16516;SDS011;8371;52.272;9.746;2023-07-02T09:06:03;5.60;;;5.10;;
16516;SDS011;8371;52.272;9.746;2023-07-02T09:08:29;4.27;;;4.03;;
16516;SDS011;8371;52.272;9.746;2023-07-02T09:11:05;5.23;;;4.50;;
16516;SDS011;8371;52.272;9.746;2023-07-02T09:13:50;4.40;;;4.20;;
16516;SDS011;8371;52.272;9.746;2023-07-02T09:16:26;6.30;;;4.47;;
16516;SDS011;8371;52.272;9.746;2023-07-02T09:18:54;5.47;;;4.83;;
16516;SDS011;8371;52.272;9.746;2023-07-02T09:21:44;5.43;;;4.63;;
16516;SDS011;8371;52.272;9.746;2023-07-02T09:24:12;4.50;;;4.30;;
16516;SDS011;8371;52.272;9.746;2023-07-02T09:26:43;4.30;;;4.10;;
16516;SDS011;8371;52.272;9.746;2023-07-02T09:29:09;5.77;;;5.27;;
16516;SDS011;8371;52.272;9.746;2023-07-02T09:31:47;5.47;;;5.17;;
16516;SDS011;8371;52.272;9.746;2023-07-02T09:34:13;5.23;;;4.50;;
16516;SDS011;8371;52.272;9.746;2023-07-02T09:36:39;5.60;;;5.07;;
16516;SDS011;8371;52.272;9.746;2023-07-02T09:39:12;5.97;;;4.83;;
16516;SDS011;8371;52.272;9.746;2023-07-02T09:41:42;5.80;;;5.40;;
16516;SDS011;8371;52.272;9.746;2023-07-02T09:44:09;5.10;;;4.70;;
16516;SDS011;8371;52.272;9.746;2023-07-02T09:46:41;4.93;;;4.57;;
16516;SDS011;8371;52.272;9.746;2023-07-02T09:49:10;5.20;;;4.67;;
16516;SDS011;8371;52.272;9.746;2023-07-02T09:51:37;4.73;;;4.40;;
16516;SDS011;8371;52.272;9.746;2023-07-02T09:54:03;4.70;;;4.30;;
16516;SDS011;8371;52.272;9.746;2023-07-02T09:56:29;4.40;;;4.10;;
16516;SDS011;8371;52.272;9.746;2023-07-02T09:58:54;5.17;;;4.77;;
16516;SDS011;8371;52.272;9.746;2023-07-02T10:01:20;4.57;;;4.27;;
16516;SDS011;8371;52.272;9.746;2023-07-02T10:03:46;4.90;;;4.57;;
16516;SDS011;8371;52.272;9.746;2023-07-02T10:06:11;4.57;;;4.27;;
16516;SDS011;8371;52.272;9.746;2023-07-02T10:08:37;5.53;;;5.13;;
16516;SDS011;8371;52.272;9.746;2023-07-02T10:11:06;4.80;;;4.40;;
16516;SDS011;8371;52.272;9.746;2023-07-02T10:13:36;4.17;;;3.93;;
16516;SDS011;8371;52.272;9.746;2023-07-02T10:16:03;3.87;;;3.67;;
16516;SDS011;8371;52.272;9.746;2023-07-02T10:18:29;5.33;;;4.73;;
16516;SDS011;8371;52.272;9.746;2023-07-02T10:20:55;8.30;;;4.23;;
16516;SDS011;8371;52.272;9.746;2023-07-02T10:23:20;4.60;;;4.20;;
16516;SDS011;8371;52.272;9.746;2023-07-02T10:25:58;5.07;;;4.73;;
16516;SDS011;8371;52.272;9.746;2023-07-02T10:28:25;4.63;;;4.33;;
16516;SDS011;8371;52.272;9.746;2023-07-02T10:30:52;4.13;;;3.93;;
16516;SDS011;8371;52.272;9.746;2023-07-02T10:33:18;4.53;;;4.13;;
16516;SDS011;8371;52.272;9.746;2023-07-02T10:35:46;4.27;;;4.00;;
16516;SDS011;8371;52.272;9.746;2023-07-02T10:38:14;5.37;;;4.87;;
16516;SDS011;8371;52.272;9.746;2023-07-02T10:40:45;7.53;;;3.90;;
16516;SDS011;8371;52.272;9.746;2023-07-02T10:43:11;3.93;;;3.73;;
16516;SDS011;8371;52.272;9.746;2023-07-02T10:45:37;4.07;;;3.83;;
16516;SDS011;8371;52.272;9.746;2023-07-02T10:48:03;4.87;;;3.77;;
16516;SDS011;8371;52.272;9.746;2023-07-02T10:50:30;4.30;;;3.90;;
16516;SDS011;8371;52.272;9.746;2023-07-02T10:52:57;4.07;;;3.87;;
16516;SDS011;8371;52.272;9.746;2023-07-02T10:55:23;3.73;;;3.53;;
16516;SDS011;8371;52.272;9.746;2023-07-02T10:57:50;4.03;;;3.73;;
16516;SDS011;8371;52.272;9.746;2023-07-02T11:00:17;3.83;;;3.53;;
16516;SDS011;8371;52.272;9.746;2023-07-02T11:02:43;4.63;;;4.23;;
16516;SDS011;8371;52.272;9.746;2023-07-02T11:05:09;4.10;;;3.80;;
16516;SDS011;8371;52.272;9.746;2023-07-02T11:07:39;3.83;;;3.50;;
16516;SDS011;8371;52.272;9.746;2023-07-02T11:10:07;4.20;;;3.90;;
16516;SDS011;8371;52.272;9.746;2023-07-02T11:12:34;4.33;;;4.00;;
16516;SDS011;8371;52.272;9.746;2023-07-02T11:15:07;3.80;;;3.60;;
16516;SDS011;8371;52.272;9.746;2023-07-02T11:17:33;3.83;;;3.63;;
16516;SDS011;8371;52.272;9.746;2023-07-02T11:19:59;3.33;;;3.07;;
16516;SDS011;8371;52.272;9.746;2023-07-02T11:22:32;3.57;;;3.37;;
16516;SDS011;8371;52.272;9.746;2023-07-02T11:25:08;5.10;;;4.13;;
16516;SDS011;8371;52.272;9.746;2023-07-02T11:27:36;3.50;;;3.20;;
16516;SDS011;8371;52.272;9.746;2023-07-02T11:30:02;3.67;;;3.47;;
16516;SDS011;8371;52.272;9.746;2023-07-02T11:32:28;4.23;;;3.83;;
16516;SDS011;8371;52.272;9.746;2023-07-02T11:34:54;3.67;;;3.47;;
16516;SDS011;8371;52.272;9.746;2023-07-02T11:37:20;4.17;;;3.97;;
16516;SDS011;8371;52.272;9.746;2023-07-02T11:39:46;4.13;;;3.93;;
16516;SDS011;8371;52.272;9.746;2023-07-02T11:42:11;3.83;;;3.53;;
16516;SDS011;8371;52.272;9.746;2023-07-02T11:44:37;3.90;;;3.70;;
16516;SDS011;8371;52.272;9.746;2023-07-02T11:47:03;3.70;;;3.40;;
16516;SDS011;8371;52.272;9.746;2023-07-02T11:49:29;3.97;;;3.77;;
16516;SDS011;8371;52.272;9.746;2023-07-02T11:51:54;5.90;;;4.17;;
16516;SDS011;8371;52.272;9.746;2023-07-02T11:54:20;5.43;;;3.53;;
16516;SDS011;8371;52.272;9.746;2023-07-02T11:56:46;4.37;;;3.83;;
16516;SDS011;8371;52.272;9.746;2023-07-02T11:59:12;6.73;;;4.03;;
16516;SDS011;8371;52.272;9.746;2023-07-02T12:01:37;3.63;;;3.37;;
16516;SDS011;8371;52.272;9.746;2023-07-02T12:04:03;4.23;;;3.93;;
16516;SDS011;8371;52.272;9.746;2023-07-02T12:06:31;3.67;;;3.47;;
16516;SDS011;8371;52.272;9.746;2023-07-02T12:08:56;3.90;;;3.60;;
16516;SDS011;8371;52.272;9.746;2023-07-02T12:11:22;3.63;;;3.43;;
16516;SDS011;8371;52.272;9.746;2023-07-02T12:13:48;3.17;;;2.97;;
16516;SDS011;8371;52.272;9.746;2023-07-02T12:16:13;4.60;;;4.30;;
16516;SDS011;8371;52.272;9.746;2023-07-02T12:18:39;4.13;;;3.87;;
16516;SDS011;8371;52.272;9.746;2023-07-02T12:21:05;3.73;;;3.43;;
16516;SDS011;8371;52.272;9.746;2023-07-02T12:23:30;3.50;;;3.30;;
16516;SDS011;8371;52.272;9.746;2023-07-02T12:25:56;4.03;;;3.73;;
16516;SDS011;8371;52.272;9.746;2023-07-02T12:28:22;3.77;;;3.57;;
16516;SDS011;8371;52.272;9.746;2023-07-02T12:30:47;4.00;;;3.73;;
16516;SDS011;8371;52.272;9.746;2023-07-02T12:33:13;3.73;;;3.53;;
16516;SDS011;8371;52.272;9.746;2023-07-02T12:35:39;3.43;;;3.17;;
16516;SDS011;8371;52.272;9.746;2023-07-02T12:38:04;4.23;;;3.77;;
16516;SDS011;8371;52.272;9.746;2023-07-02T12:40:32;4.37;;;3.60;;
16516;SDS011;8371;52.272;9.746;2023-07-02T12:42:57;3.53;;;3.33;;
16516;SDS011;8371;52.272;9.746;2023-07-02T12:45:23;4.00;;;3.30;;
16516;SDS011;8371;52.272;9.746;2023-07-02T12:47:49;3.77;;;3.57;;
16516;SDS011;8371;52.272;9.746;2023-07-02T12:50:14;3.80;;;3.50;;
16516;SDS011;8371;52.272;9.746;2023-07-02T12:52:40;3.70;;;3.40;;
16516;SDS011;8371;52.272;9.746;2023-07-02T12:55:06;3.87;;;3.57;;
16516;SDS011;8371;52.272;9.746;2023-07-02T12:57:32;3.73;;;3.43;;
16516;SDS011;8371;52.272;9.746;2023-07-02T12:59:58;3.03;;;2.93;;
16516;SDS011;8371;52.272;9.746;2023-07-02T13:02:23;8.00;;;3.73;;
16516;SDS011;8371;52.272;9.746;2023-07-02T13:04:49;4.57;;;2.97;;
16516;SDS011;8371;52.272;9.746;2023-07-02T13:07:16;3.33;;;3.23;;
16516;SDS011;8371;52.272;9.746;2023-07-02T13:09:42;6.23;;;3.70;;
16516;SDS011;8371;52.272;9.746;2023-07-02T13:12:08;3.77;;;3.57;;
16516;SDS011;8371;52.272;9.746;2023-07-02T13:14:35;3.60;;;3.40;;
16516;SDS011;8371;52.272;9.746;2023-07-02T13:17:01;4.30;;;4.00;;
16516;SDS011;8371;52.272;9.746;2023-07-02T13:19:28;4.27;;;3.90;;
16516;SDS011;8371;52.272;9.746;2023-07-02T13:21:54;4.13;;;3.93;;
16516;SDS011;8371;52.272;9.746;2023-07-02T13:24:20;3.93;;;3.73;;
16516;SDS011;8371;52.272;9.746;2023-07-02T13:26:46;4.50;;;4.20;;
16516;SDS011;8371;52.272;9.746;2023-07-02T13:29:12;4.00;;;3.57;;
16516;SDS011;8371;52.272;9.746;2023-07-02T13:31:37;4.30;;;3.90;;
16516;SDS011;8371;52.272;9.746;2023-07-02T13:34:03;4.27;;;3.97;;
16516;SDS011;8371;52.272;9.746;2023-07-02T13:36:29;3.10;;;2.93;;
16516;SDS011;8371;52.272;9.746;2023-07-02T13:38:54;3.53;;;3.23;;
16516;SDS011;8371;52.272;9.746;2023-07-02T13:41:20;5.47;;;3.07;;
16516;SDS011;8371;52.272;9.746;2023-07-02T13:43:46;3.50;;;3.33;;
16516;SDS011;8371;52.272;9.746;2023-07-02T13:46:12;3.87;;;3.57;;
16516;SDS011;8371;52.272;9.746;2023-07-02T13:48:38;3.83;;;3.53;;
16516;SDS011;8371;52.272;9.746;2023-07-02T13:51:04;3.67;;;3.47;;
16516;SDS011;8371;52.272;9.746;2023-07-02T13:53:29;3.47;;;3.17;;
16516;SDS011;8371;52.272;9.746;2023-07-02T13:55:55;4.00;;;3.70;;
16516;SDS011;8371;52.272;9.746;2023-07-02T13:58:22;3.70;;;3.50;;
16516;SDS011;8371;52.272;9.746;2023-07-02T14:00:48;3.27;;;3.07;;
16516;SDS011;8371;52.272;9.746;2023-07-02T14:03:14;3.60;;;3.40;;
16516;SDS011;8371;52.272;9.746;2023-07-02T14:05:40;3.53;;;3.23;;
16516;SDS011;8371;52.272;9.746;2023-07-02T14:08:06;3.80;;;3.50;;
16516;SDS011;8371;52.272;9.746;2023-07-02T14:10:33;3.70;;;3.50;;
16516;SDS011;8371;52.272;9.746;2023-07-02T14:12:58;3.53;;;3.33;;
16516;SDS011;8371;52.272;9.746;2023-07-02T14:15:24;3.00;;;2.90;;
16516;SDS011;8371;52.272;9.746;2023-07-02T14:17:50;3.67;;;3.47;;
16516;SDS011;8371;52.272;9.746;2023-07-02T14:20:16;3.43;;;3.23;;
16516;SDS011;8371;52.272;9.746;2023-07-02T14:22:42;4.80;;;3.37;;
16516;SDS011;8371;52.272;9.746;2023-07-02T14:25:08;3.37;;;3.13;;
16516;SDS011;8371;52.272;9.746;2023-07-02T14:27:34;2.97;;;2.87;;
16516;SDS011;8371;52.272;9.746;2023-07-02T14:30:00;3.20;;;3.10;;
16516;SDS011;8371;52.272;9.746;2023-07-02T14:32:28;3.83;;;3.20;;
16516;SDS011;8371;52.272;9.746;2023-07-02T14:34:53;3.43;;;3.10;;
16516;SDS011;8371;52.272;9.746;2023-07-02T14:37:19;3.57;;;3.27;;
16516;SDS011;8371;52.272;9.746;2023-07-02T14:39:47;3.73;;;3.53;;
16516;SDS011;8371;52.272;9.746;2023-07-02T14:42:12;7.20;;;3.30;;
16516;SDS011;8371;52.272;9.746;2023-07-02T14:44:38;3.27;;;3.07;;
16516;SDS011;8371;52.272;9.746;2023-07-02T14:47:09;3.33;;;3.03;;
16516;SDS011;8371;52.272;9.746;2023-07-02T14:49:32;3.33;;;3.03;;
16516;SDS011;8371;52.272;9.746;2023-07-02T14:51:58;3.77;;;3.57;;
16516;SDS011;8371;52.272;9.746;2023-07-02T14:54:23;3.67;;;3.37;;
16516;SDS011;8371;52.272;9.746;2023-07-02T14:56:49;3.10;;;2.90;;
16516;SDS011;8371;52.272;9.746;2023-07-02T14:59:17;3.47;;;3.27;;